Decoded Metar for KS32 ( in ) (IATA:) | Meteo·Mobile Aviation Weather
aviador You're here:

KS32 Decoded Metar

in
Report Time2019-05-19 13:15:00
UTC Time2019-05-19 13:24:18
Flight Rules vfr VFR
Wind030° at 14 kt
Visibility9999 m
Phenomena:N/A
Clouds:Few 095 Hf
Expected CloudBase > 2,000 ft AGL from Temp-Dew spread
CeilingNone
Temp05°C
Dew Point00°C (70% RH)
AAT-2.0°C
QNH1016 hPa
Raw Report
KS32 191315Z AUTO 03014KT 10SM FEW095 05/00 A3001 RMK AO2=

Extra information for KS32:More info

Social comments